Time;durP1;ratioP1;P1;durP2;ratioP2;P2;SDS_P1;SDS_P2;PMS_P1;PMS_P2;Temp;Humidity;BMP_temperature;BMP_pressure;BME280_temperature;BME280_humidity;BME280_pressure;Samples;Min_cycle;Max_cycle;Signal;HPM_P1;HPM_P2
2020/12/17 00:04:02;;;;;;;19.20;17.20;;;;;;;8.75;78.92;100399.44;9807447;28;20980;-76
2020/12/17 00:09:11;;;;;;;18.40;16.50;;;;;;;8.71;78.68;100404.13;9822844;28;20060;-75
2020/12/17 00:14:13;;;;;;;19.83;16.10;;;;;;;8.71;78.72;100398.84;9817041;28;20054;-75
2020/12/17 00:19:14;;;;;;;18.23;16.33;;;;;;;8.71;79.19;100406.78;9814753;28;20973;-75
2020/12/17 00:24:15;;;;;;;18.63;16.60;;;;;;;8.72;78.85;100394.34;9808898;28;20119;-75
2020/12/17 00:29:16;;;;;;;18.08;15.48;;;;;;;8.74;78.74;100385.34;9809034;28;20078;-74
2020/12/17 00:34:18;;;;;;;20.15;16.92;;;;;;;8.66;79.18;100371.75;9793138;28;20095;-75
2020/12/17 00:39:23;;;;;;;18.73;16.33;;;;;;;8.63;79.16;100374.63;9817654;28;20187;-76
2020/12/17 00:44:25;;;;;;;20.33;16.98;;;;;;;8.73;78.82;100369.53;9802668;28;20057;-74
2020/12/17 00:49:27;;;;;;;17.90;16.00;;;;;;;8.61;78.62;100376.53;9833612;28;20057;-74
2020/12/17 00:54:28;;;;;;;17.77;15.88;;;;;;;8.47;79.19;100375.69;9822982;28;20057;-74
2020/12/17 00:59:30;;;;;;;20.52;17.33;;;;;;;8.42;79.48;100371.63;9813554;28;20117;-74
2020/12/17 01:04:31;;;;;;;17.83;16.02;;;;;;;8.40;79.28;100374.41;9815310;28;20050;-75
2020/12/17 01:09:38;;;;;;;18.17;16.27;;;;;;;8.35;79.70;100376.53;9810871;28;20053;-75
2020/12/17 01:14:39;;;;;;;18.15;16.17;;;;;;;8.34;79.35;100388.09;9834618;28;20057;-74
2020/12/17 01:19:42;;;;;;;19.30;16.20;;;;;;;8.24;79.57;100373.75;9844076;28;20117;-74
2020/12/17 01:24:44;;;;;;;17.85;15.95;;;;;;;8.25;79.47;100383.41;9787384;28;20106;-75
2020/12/17 01:29:45;;;;;;;18.90;16.90;;;;;;;8.18;79.71;100403.34;9810793;28;20141;-75
2020/12/17 01:34:47;;;;;;;17.23;15.20;;;;;;;8.09;79.44;100405.69;9796621;28;20099;-75
2020/12/17 01:39:56;;;;;;;17.65;15.75;;;;;;;8.04;79.61;100418.38;9826557;28;20058;-74
2020/12/17 01:44:57;;;;;;;19.95;16.42;;;;;;;7.95;79.78;100411.91;9814362;28;22368;-74
2020/12/17 01:50:01;;;;;;;19.92;16.48;;;;;;;7.94;79.93;100422.59;9849867;28;20088;-75
2020/12/17 01:55:02;;;;;;;19.67;17.55;;;;;;;7.76;80.07;100391.09;9815331;28;20054;-74
2020/12/17 02:00:06;;;;;;;18.65;16.80;;;;;;;7.82;80.04;100402.22;9826354;28;21158;-74
2020/12/17 02:05:08;;;;;;;18.23;15.97;;;;;;;7.77;80.05;100411.31;9814467;28;20858;-75
2020/12/17 02:10:14;;;;;;;22.17;17.65;;;;;;;7.68;80.08;100403.16;9811061;28;20046;-76
2020/12/17 02:15:17;;;;;;;19.13;16.58;;;;;;;7.74;80.16;100410.69;9816383;28;20065;-76
2020/12/17 02:20:19;;;;;;;19.90;17.65;;;;;;;7.73;80.19;100409.84;9806853;28;20082;-75
2020/12/17 02:25:20;;;;;;;18.98;16.27;;;;;;;7.69;79.89;100412.81;9825385;28;20165;-75
2020/12/17 02:30:22;;;;;;;17.90;15.05;;;;;;;7.55;79.83;100411.03;9816806;28;20070;-76
2020/12/17 02:35:23;;;;;;;17.77;15.90;;;;;;;7.54;79.72;100406.72;9845313;28;20472;-76
2020/12/17 02:40:31;;;;;;;17.73;15.52;;;;;;;7.47;79.45;100400.94;9844540;28;20117;-76
2020/12/17 02:45:32;;;;;;;18.00;16.10;;;;;;;7.44;79.02;100402.00;9802712;28;20313;-74
2020/12/17 02:50:33;;;;;;;18.08;15.73;;;;;;;7.43;78.90;100410.91;9809461;28;20533;-74
2020/12/17 02:55:36;;;;;;;16.98;14.38;;;;;;;7.35;78.84;100413.19;9822120;28;20064;-79
2020/12/17 03:00:37;;;;;;;16.33;14.60;;;;;;;7.32;78.50;100397.50;9826767;28;20546;-75
2020/12/17 03:05:38;;;;;;;17.00;14.68;;;;;;;7.39;78.46;100413.84;9827386;28;20058;-75
2020/12/17 03:10:50;;;;;;;19.15;15.00;;;;;;;7.33;78.50;100425.69;9824515;28;20050;-75
2020/12/17 03:15:52;;;;;;;18.17;14.55;;;;;;;7.33;78.14;100428.34;9848807;28;20972;-76
2020/12/17 03:20:54;;;;;;;16.80;15.00;;;;;;;7.27;78.61;100434.03;9832540;28;20457;-75
2020/12/17 03:25:55;;;;;;;15.93;14.23;;;;;;;7.22;78.56;100422.84;9800457;28;20108;-76
2020/12/17 03:30:56;;;;;;;18.20;14.20;;;;;;;7.26;78.16;100433.16;9806662;28;20772;-75
2020/12/17 03:35:57;;;;;;;17.42;15.30;;;;;;;7.22;78.18;100429.03;9810366;28;20058;-76
2020/12/17 03:41:14;;;;;;;15.80;13.57;;;;;;;7.18;78.37;100431.97;9809948;28;20054;-75
2020/12/17 03:46:16;;;;;;;15.95;14.25;;;;;;;7.17;78.43;100406.44;9809474;28;20102;-76
2020/12/17 03:51:18;;;;;;;17.75;14.32;;;;;;;7.16;77.87;100413.53;9794719;28;20113;-77
2020/12/17 03:56:19;;;;;;;17.42;14.68;;;;;;;7.12;78.28;100411.19;9807177;28;20209;-76
2020/12/17 04:01:20;;;;;;;16.38;14.57;;;;;;;6.99;77.55;100405.81;9843063;28;20053;-75
2020/12/17 04:06:22;;;;;;;16.92;14.00;;;;;;;6.96;77.47;100428.00;9849078;28;20084;-76
2020/12/17 04:11:32;;;;;;;16.98;14.63;;;;;;;6.90;77.74;100426.63;9820481;28;20054;-76
2020/12/17 04:16:33;;;;;;;15.50;13.82;;;;;;;6.80;77.42;100428.13;9815608;28;20055;-75
2020/12/17 04:21:34;;;;;;;16.05;14.20;;;;;;;6.65;77.67;100414.06;9798750;28;20073;-78
2020/12/17 04:26:35;;;;;;;15.65;13.80;;;;;;;6.59;77.64;100411.78;9810236;28;20058;-75
2020/12/17 04:31:37;;;;;;;14.75;13.25;;;;;;;6.57;77.38;100415.47;9814283;28;21757;-75
2020/12/17 04:36:40;;;;;;;16.77;14.43;;;;;;;6.56;77.58;100430.50;9812393;28;20137;-76
2020/12/17 04:41:52;;;;;;;15.40;13.80;;;;;;;6.49;77.84;100439.75;9822227;28;20066;-76
2020/12/17 04:46:59;;;;;;;18.45;13.93;;;;;;;6.51;77.84;100433.38;9793793;28;20061;-76
2020/12/17 04:52:01;;;;;;;17.45;14.45;;;;;;;6.50;77.11;100444.94;9817493;28;20227;-74
2020/12/17 04:57:07;;;;;;;15.95;13.38;;;;;;;6.47;77.10;100462.75;9815407;28;20058;-74
2020/12/17 05:02:10;;;;;;;16.27;14.57;;;;;;;6.44;76.89;100447.06;9816962;28;20137;-75
2020/12/17 05:07:14;;;;;;;15.35;13.48;;;;;;;6.31;76.93;100429.31;9794297;28;20063;-77
2020/12/17 05:12:16;;;;;;;15.27;12.57;;;;;;;6.32;77.15;100456.59;9824652;28;20058;-74
2020/12/17 05:17:17;;;;;;;18.50;15.02;;;;;;;6.39;76.86;100459.75;9837303;28;20050;-75
2020/12/17 05:22:19;;;;;;;15.70;13.80;;;;;;;6.35;76.97;100470.50;9823001;28;21189;-74
2020/12/17 05:27:21;;;;;;;16.38;14.50;;;;;;;6.34;76.92;100471.44;9801735;28;20141;-75
2020/12/17 05:32:22;;;;;;;14.80;12.23;;;;;;;6.31;76.86;100463.69;9807676;28;20054;-75
2020/12/17 05:37:24;;;;;;;15.13;13.52;;;;;;;6.44;76.94;100489.38;9864625;28;20050;-75
2020/12/17 05:42:29;;;;;;;15.02;13.43;;;;;;;6.46;76.66;100475.13;9815705;28;20058;-75
2020/12/17 05:47:30;;;;;;;15.80;13.75;;;;;;;6.50;76.17;100486.38;9804900;28;20093;-75
2020/12/17 05:52:33;;;;;;;15.02;12.93;;;;;;;6.49;75.83;100489.97;9819502;28;20057;-75
2020/12/17 05:57:34;;;;;;;14.65;12.23;;;;;;;6.58;75.87;100502.66;9798577;28;24664;-74
2020/12/17 06:02:36;;;;;;;13.80;11.15;;;;;;;6.63;75.71;100499.72;9819477;28;22365;-75
2020/12/17 06:07:47;;;;;;;14.32;12.77;;;;;;;6.63;75.89;100511.16;9800109;28;20491;-75
2020/12/17 06:12:55;;;;;;;15.13;13.55;;;;;;;6.61;75.55;100517.50;9779066;28;20190;-68
2020/12/17 06:18:05;;;;;;;14.13;12.65;;;;;;;6.54;75.99;100533.72;9795496;28;20911;-69
2020/12/17 06:23:10;;;;;;;14.30;12.77;;;;;;;6.51;75.61;100533.03;9788692;28;20535;-69
2020/12/17 06:28:46;;;;;;;14.10;12.60;;;;;;;6.51;75.67;100544.47;9809902;28;20424;-74
2020/12/17 06:33:47;;;;;;;14.90;12.40;;;;;;;6.47;76.08;100544.75;9770938;28;20105;-76
2020/12/17 06:38:49;;;;;;;15.23;12.95;;;;;;;6.42;75.55;100549.47;9787444;28;20057;-75
2020/12/17 06:43:51;;;;;;;14.52;13.02;;;;;;;6.44;76.23;100552.84;9795994;28;24250;-74
2020/12/17 06:48:54;;;;;;;15.88;14.13;;;;;;;6.34;76.66;100550.75;9791367;28;20058;-73
2020/12/17 06:53:55;;;;;;;14.55;12.85;;;;;;;6.55;76.71;100555.72;9787788;28;20479;-75
2020/12/17 06:59:18;;;;;;;14.30;12.32;;;;;;;6.57;75.76;100559.13;9798219;28;20113;-72
2020/12/17 07:04:34;;;;;;;15.43;12.57;;;;;;;6.61;75.73;100558.03;9812160;28;20150;-75
2020/12/17 07:09:35;;;;;;;16.80;12.93;;;;;;;6.58;75.96;100568.78;9818996;28;20046;-76
2020/12/17 07:14:37;;;;;;;16.75;13.20;;;;;;;6.59;75.59;100578.44;9822375;28;20061;-76
2020/12/17 07:19:48;;;;;;;13.63;12.23;;;;;;;6.62;76.32;100575.59;9660827;28;20063;-72
2020/12/17 07:24:52;;;;;;;13.93;12.52;;;;;;;6.59;75.44;100589.00;9764425;28;20054;-72
2020/12/17 07:30:08;;;;;;;14.68;12.95;;;;;;;6.67;76.01;100604.44;9794076;28;20644;-76
2020/12/17 07:35:10;;;;;;;14.73;12.52;;;;;;;6.74;75.53;100613.72;9790998;28;20058;-72
2020/12/17 07:40:15;;;;;;;13.82;12.27;;;;;;;6.83;75.19;100625.53;9792694;28;21696;-74
2020/12/17 07:45:35;;;;;;;13.63;12.23;;;;;;;6.86;74.84;100606.81;9801990;28;20053;-71
2020/12/17 07:50:38;;;;;;;15.13;13.25;;;;;;;6.86;74.95;100628.00;9804474;28;22745;-74
2020/12/17 07:55:41;;;;;;;16.23;14.40;;;;;;;6.86;74.79;100614.75;9788448;28;20080;-73
2020/12/17 08:00:43;;;;;;;14.30;12.32;;;;;;;7.06;74.16;100624.19;9796284;28;20058;-72
2020/12/17 08:05:46;;;;;;;15.20;13.57;;;;;;;7.20;74.03;100612.75;9791437;28;20543;-74
2020/12/17 08:10:48;;;;;;;14.15;12.65;;;;;;;7.24;73.66;100630.16;9809904;28;20065;-73
2020/12/17 08:15:57;;;;;;;13.93;12.52;;;;;;;7.19;73.40;100611.03;9774324;28;20062;-73
2020/12/17 08:21:06;;;;;;;14.02;12.48;;;;;;;7.11;73.99;100608.00;9797253;28;20570;-73
2020/12/17 08:26:12;;;;;;;14.30;12.45;;;;;;;7.18;73.58;100617.28;9768799;28;20425;-73
2020/12/17 08:31:25;;;;;;;14.05;12.52;;;;;;;7.23;73.72;100617.84;9826867;28;20460;-73
2020/12/17 08:36:30;;;;;;;14.95;12.77;;;;;;;7.10;73.92;100603.66;9798520;28;20092;-73
2020/12/17 08:41:37;;;;;;;13.65;12.23;;;;;;;7.23;74.23;100615.22;9798969;28;20053;-73
2020/12/17 08:46:51;;;;;;;15.00;12.57;;;;;;;7.37;73.42;100622.31;9792678;28;20062;-73
2020/12/17 08:51:53;;;;;;;14.27;12.63;;;;;;;7.50;73.13;100639.16;9794458;28;23313;-73
2020/12/17 08:57:16;;;;;;;15.48;12.40;;;;;;;7.69;73.12;100662.72;9785902;28;20093;-73
2020/12/17 09:02:29;;;;;;;13.60;11.53;;;;;;;7.65;73.22;100658.56;9794420;28;20195;-72
2020/12/17 09:07:31;;;;;;;13.43;11.90;;;;;;;7.66;73.61;100664.72;9807388;28;20405;-73
2020/12/17 09:12:32;;;;;;;14.98;12.50;;;;;;;7.63;73.79;100657.81;9793876;28;20460;-73
2020/12/17 09:17:34;;;;;;;14.82;11.95;;;;;;;7.66;73.71;100665.56;9914955;28;20059;-73
2020/12/17 09:22:36;;;;;;;20.40;13.02;;;;;;;7.68;73.78;100674.25;9787646;28;25395;-72
2020/12/17 09:27:37;;;;;;;14.43;12.38;;;;;;;7.73;74.16;100677.50;9800300;28;20208;-72
2020/12/17 09:32:55;;;;;;;14.65;12.32;;;;;;;7.77;74.06;100680.78;9795391;28;20140;-73
2020/12/17 09:38:16;;;;;;;22.90;14.05;;;;;;;7.75;73.99;100688.00;9793004;28;20063;-73
2020/12/17 09:43:17;;;;;;;16.38;13.45;;;;;;;7.65;74.98;100679.75;9774058;28;20136;-73
2020/12/17 09:48:21;;;;;;;16.17;13.50;;;;;;;7.73;75.18;100693.38;9794698;28;23260;-73
2020/12/17 09:53:23;;;;;;;15.33;12.73;;;;;;;7.77;75.25;100700.19;9788486;28;20061;-73
2020/12/17 09:58:25;;;;;;;12.20;10.90;;;;;;;7.75;75.57;100686.19;9798607;28;20145;-74
2020/12/17 10:03:26;;;;;;;13.43;12.07;;;;;;;7.68;76.30;100684.84;9792477;28;20216;-74
2020/12/17 10:08:27;;;;;;;14.63;13.15;;;;;;;7.55;77.55;100700.66;9797885;28;20130;-73
2020/12/17 10:13:29;;;;;;;13.93;12.52;;;;;;;7.64;77.98;100704.56;9779148;28;20414;-74
2020/12/17 10:18:30;;;;;;;13.98;12.48;;;;;;;7.65;78.32;100713.34;9809500;28;20118;-72
2020/12/17 10:23:32;;;;;;;13.98;12.57;;;;;;;7.83;78.06;100708.72;9812354;28;20085;-73
2020/12/17 10:28:33;;;;;;;14.15;12.63;;;;;;;7.94;77.85;100711.53;9799686;28;20132;-71
2020/12/17 10:33:35;;;;;;;14.65;12.88;;;;;;;7.89;77.63;100703.88;9785774;28;20680;-74
2020/12/17 10:38:36;;;;;;;13.82;11.88;;;;;;;8.09;77.59;100715.91;9808392;28;20786;-73
2020/12/17 10:43:38;;;;;;;15.40;13.80;;;;;;;8.10;77.49;100699.03;9790311;28;22583;-73
2020/12/17 10:48:39;;;;;;;14.68;13.27;;;;;;;8.00;78.53;100711.19;9788187;28;20121;-72
2020/12/17 10:53:44;;;;;;;14.55;13.07;;;;;;;7.92;78.52;100716.09;9775796;28;20065;-75
2020/12/17 10:58:49;;;;;;;18.42;14.50;;;;;;;7.93;78.77;100715.16;9786976;28;20064;-73
2020/12/17 11:03:52;;;;;;;19.45;16.60;;;;;;;8.10;78.67;100707.00;9807993;28;20050;-73
2020/12/17 11:08:53;;;;;;;15.15;13.50;;;;;;;8.09;78.41;100715.03;9809228;28;20046;-72
2020/12/17 11:13:55;;;;;;;16.13;14.38;;;;;;;8.03;78.41;100703.03;9784899;28;20185;-71
2020/12/17 11:18:59;;;;;;;15.07;13.48;;;;;;;8.08;79.01;100708.91;9800794;28;20746;-73
2020/12/17 11:24:01;;;;;;;15.85;14.23;;;;;;;8.02;78.65;100717.22;9836502;28;20065;-72
2020/12/17 11:29:03;;;;;;;16.08;14.38;;;;;;;8.08;78.88;100708.91;9809300;28;20061;-71
2020/12/17 11:34:05;;;;;;;15.65;14.15;;;;;;;8.04;79.28;100706.53;9788412;28;21188;-71
2020/12/17 11:39:06;;;;;;;15.27;13.77;;;;;;;8.06;79.63;100715.22;10021180;28;20129;-72
2020/12/17 11:44:08;;;;;;;17.33;15.52;;;;;;;8.19;79.24;100720.63;9784263;28;20061;-73
2020/12/17 11:49:09;;;;;;;15.25;13.70;;;;;;;8.24;78.91;100715.88;9787329;28;20050;-72
2020/12/17 11:54:11;;;;;;;18.60;16.25;;;;;;;8.16;79.46;100726.13;9773389;28;21856;-75
2020/12/17 11:59:12;;;;;;;17.58;15.68;;;;;;;8.17;79.69;100720.72;9789548;28;24351;-72
2020/12/17 12:04:13;;;;;;;20.17;18.02;;;;;;;8.28;79.40;100730.66;9796650;28;20139;-72
2020/12/17 12:09:18;;;;;;;19.60;17.58;;;;;;;8.36;79.35;100738.13;9750180;28;20070;-72
2020/12/17 12:14:21;;;;;;;19.02;17.17;;;;;;;8.36;79.24;100743.41;9784373;28;20132;-73
2020/12/17 12:19:22;;;;;;;18.50;16.70;;;;;;;8.44;79.41;100747.34;9774610;28;20054;-73
2020/12/17 12:24:23;;;;;;;19.00;17.10;;;;;;;8.31;79.76;100746.38;9780423;28;20056;-71
2020/12/17 12:29:26;;;;;;;19.95;17.88;;;;;;;8.35;80.20;100731.97;9809667;28;20058;-71
2020/12/17 12:34:29;;;;;;;17.60;15.80;;;;;;;8.35;79.94;100734.63;9801147;28;20073;-71
2020/12/17 12:39:30;;;;;;;17.55;15.77;;;;;;;8.57;79.66;100738.56;9802940;28;20864;-75
2020/12/17 12:44:31;;;;;;;21.67;16.23;;;;;;;8.62;79.87;100739.16;9791599;28;20062;-71
2020/12/17 12:49:33;;;;;;;19.27;16.35;;;;;;;8.72;79.66;100734.97;9800558;28;20053;-72
2020/12/17 12:54:34;;;;;;;15.57;14.07;;;;;;;8.76;79.21;100741.75;9796586;28;20393;-71
2020/12/17 12:59:36;;;;;;;18.63;16.73;;;;;;;8.71;79.55;100743.00;9811292;28;20097;-72
2020/12/17 13:04:39;;;;;;;19.77;17.75;;;;;;;8.80;79.64;100748.56;9794482;28;21698;-71
2020/12/17 13:09:40;;;;;;;18.05;15.35;;;;;;;8.67;80.21;100742.34;9783892;28;20540;-73
2020/12/17 13:14:42;;;;;;;16.75;15.05;;;;;;;8.74;80.88;100754.28;9782877;28;20050;-72
2020/12/17 13:19:43;;;;;;;17.55;15.82;;;;;;;9.01;79.94;100758.75;9773031;28;20109;-73
2020/12/17 13:24:45;;;;;;;15.82;14.23;;;;;;;9.27;78.89;100757.00;9784415;28;20092;-71
2020/12/17 13:29:46;;;;;;;14.18;12.77;;;;;;;9.33;78.96;100761.06;9783891;28;20093;-72
2020/12/17 13:34:48;;;;;;;15.27;13.68;;;;;;;10.37;74.71;100746.81;9777028;28;20099;-71
2020/12/17 13:39:49;;;;;;;14.25;12.82;;;;;;;12.82;65.34;100732.53;9792805;28;22077;-70
2020/12/17 13:44:50;;;;;;;14.70;13.15;;;;;;;12.23;66.02;100750.59;9779748;28;21693;-71
2020/12/17 13:49:51;;;;;;;13.95;12.57;;;;;;;11.05;70.67;100763.16;9790699;28;20054;-72
2020/12/17 13:54:53;;;;;;;14.05;12.65;;;;;;;10.25;73.96;100769.78;9793908;28;20070;-71
2020/12/17 13:59:54;;;;;;;13.98;12.52;;;;;;;9.88;75.91;100756.44;9797750;28;20138;-73
2020/12/17 14:04:55;;;;;;;15.38;13.88;;;;;;;9.72;76.80;100772.59;9788486;28;20092;-70
2020/12/17 14:09:57;;;;;;;14.93;13.55;;;;;;;9.60;77.33;100765.47;9783258;28;20054;-69
2020/12/17 14:14:58;;;;;;;14.93;13.45;;;;;;;9.48;78.11;100773.28;9805529;28;20070;-70
2020/12/17 14:19:59;;;;;;;16.65;13.50;;;;;;;9.41;78.90;100789.75;9819569;28;20046;-70
2020/12/17 14:25:01;;;;;;;15.18;13.45;;;;;;;9.18;79.31;100762.94;9781280;28;20054;-71
2020/12/17 14:30:03;;;;;;;15.23;13.70;;;;;;;9.28;79.14;100789.75;9788216;28;20238;-70
2020/12/17 14:35:05;;;;;;;14.98;13.50;;;;;;;9.26;79.95;100794.28;9792476;28;20847;-71
2020/12/17 14:40:06;;;;;;;14.35;12.85;;;;;;;9.25;80.10;100805.84;9784426;28;20058;-72
2020/12/17 14:45:07;;;;;;;18.27;14.55;;;;;;;9.12;80.74;100793.38;9791718;28;20053;-69
2020/12/17 14:50:08;;;;;;;15.40;13.95;;;;;;;9.05;81.22;100801.88;9791871;28;20054;-70
2020/12/17 14:55:10;;;;;;;16.08;14.38;;;;;;;8.98;81.54;100804.94;9796999;28;20050;-71
2020/12/17 15:00:11;;;;;;;16.02;14.43;;;;;;;8.93;82.13;100814.13;9813495;28;20060;-72
2020/12/17 15:05:12;;;;;;;18.13;15.77;;;;;;;8.84;82.41;100824.41;9798488;28;20058;-70
2020/12/17 15:10:14;;;;;;;17.17;15.15;;;;;;;8.81;82.52;100823.72;9788623;28;20055;-69
2020/12/17 15:15:15;;;;;;;15.60;13.98;;;;;;;8.74;82.58;100825.94;9793863;28;22257;-69
2020/12/17 15:20:17;;;;;;;18.25;14.90;;;;;;;8.76;82.85;100842.63;9781429;28;20046;-69
2020/12/17 15:25:18;;;;;;;16.52;13.50;;;;;;;8.67;82.68;100844.03;9784977;28;20050;-70
2020/12/17 15:30:19;;;;;;;17.05;15.30;;;;;;;8.61;82.40;100843.59;9803225;28;20062;-70
2020/12/17 15:35:28;;;;;;;19.58;17.45;;;;;;;8.54;82.52;100858.19;9804042;28;20084;-72
2020/12/17 15:40:30;;;;;;;18.15;16.10;;;;;;;8.49;82.97;100861.97;9803333;28;20054;-70
2020/12/17 15:45:44;;;;;;;20.92;18.50;;;;;;;8.52;83.17;100865.41;9807503;28;20592;-70
2020/12/17 15:50:45;;;;;;;33.75;23.42;;;;;;;8.63;83.22;100862.91;9801498;28;20205;-71
2020/12/17 15:55:48;;;;;;;26.50;20.55;;;;;;;8.74;83.10;100864.91;9800889;28;23171;-70
2020/12/17 16:00:49;;;;;;;22.05;18.48;;;;;;;8.77;82.75;100878.84;9792484;28;23596;-70
2020/12/17 16:05:52;;;;;;;20.83;17.25;;;;;;;8.77;82.63;100886.81;9791192;28;20054;-70
2020/12/17 16:10:53;;;;;;;18.67;16.63;;;;;;;8.72;82.98;100886.25;9805705;28;20290;-70
2020/12/17 16:15:54;;;;;;;21.48;17.65;;;;;;;8.81;82.78;100901.59;9796958;28;20111;-71
2020/12/17 16:20:55;;;;;;;20.00;16.25;;;;;;;8.80;82.79;100886.59;9758748;28;20785;-70
2020/12/17 16:25:56;;;;;;;21.20;16.90;;;;;;;8.90;82.84;100891.31;9784379;28;20598;-70
2020/12/17 16:30:58;;;;;;;13.93;12.05;;;;;;;9.01;82.89;100896.81;9800473;28;20496;-70
2020/12/17 16:36:00;;;;;;;14.13;11.73;;;;;;;9.09;82.50;100902.47;9801318;28;20141;-70
2020/12/17 16:41:01;;;;;;;12.57;10.43;;;;;;;9.09;82.54;100889.19;9777415;28;20062;-71
2020/12/17 16:46:02;;;;;;;10.45;9.30;;;;;;;9.18;82.06;100901.88;9764617;28;20053;-70
2020/12/17 16:51:04;;;;;;;11.45;10.10;;;;;;;9.19;81.79;100886.81;9800773;28;20050;-72
2020/12/17 16:56:05;;;;;;;10.10;8.55;;;;;;;9.15;81.94;100885.31;9817263;28;20120;-72
2020/12/17 17:01:07;;;;;;;13.23;9.50;;;;;;;9.09;81.94;100897.16;9796191;28;20329;-70
2020/12/17 17:06:10;;;;;;;10.70;8.98;;;;;;;8.99;82.50;100898.72;9750304;28;20058;-71
2020/12/17 17:11:12;;;;;;;12.20;9.50;;;;;;;8.99;82.32;100904.00;9938170;23;20046;-68
2020/12/17 17:16:13;;;;;;;10.75;9.20;;;;;;;9.08;82.29;100910.56;9759870;28;21881;-68
2020/12/17 17:21:14;;;;;;;9.68;8.73;;;;;;;9.19;81.88;100918.69;9741201;28;20110;-67
2020/12/17 17:26:16;;;;;;;10.45;8.38;;;;;;;9.26;81.69;100912.00;9879645;28;20070;-67
2020/12/17 17:31:17;;;;;;;11.70;10.02;;;;;;;9.34;81.28;100922.16;9750912;28;20853;-71
2020/12/17 17:36:18;;;;;;;12.07;10.77;;;;;;;9.34;80.89;100923.00;9818166;28;20059;-68
2020/12/17 17:41:19;;;;;;;11.80;10.65;;;;;;;9.33;80.99;100920.47;9788953;28;20432;-68
2020/12/17 17:46:21;;;;;;;15.10;13.50;;;;;;;9.24;80.87;100931.69;9896673;28;20058;-68
2020/12/17 17:51:22;;;;;;;13.40;11.63;;;;;;;9.11;80.99;100932.47;9806232;28;20130;-69
2020/12/17 17:56:23;;;;;;;13.80;12.05;;;;;;;9.02;81.30;100941.00;10065545;28;20078;-67
2020/12/17 18:01:25;;;;;;;17.02;13.75;;;;;;;8.85;81.68;100937.59;9796628;28;20054;-68
2020/12/17 18:06:26;;;;;;;15.95;12.55;;;;;;;8.80;81.88;100952.97;9745333;28;20058;-67
2020/12/17 18:11:34;;;;;;;15.63;13.30;;;;;;;8.66;82.13;100937.03;9748116;28;20133;-68
2020/12/17 18:16:36;;;;;;;18.35;16.15;;;;;;;8.63;81.67;100942.53;9743496;28;20059;-67
2020/12/17 18:21:39;;;;;;;17.63;14.95;;;;;;;8.65;82.48;100948.63;9763411;28;20054;-67
2020/12/17 18:26:41;;;;;;;18.58;14.73;;;;;;;8.57;81.52;100942.91;9782795;28;20117;-67
2020/12/17 18:31:45;;;;;;;19.92;16.38;;;;;;;8.46;81.59;100951.53;9768781;28;20055;-66
2020/12/17 18:36:47;;;;;;;20.20;16.65;;;;;;;8.33;81.67;100938.09;9766627;28;20575;-67
2020/12/17 18:41:49;;;;;;;18.45;16.55;;;;;;;8.24;81.53;100943.97;9750187;28;20051;-68
2020/12/17 18:46:50;;;;;;;22.65;17.85;;;;;;;8.19;81.70;100975.22;9749415;28;23247;-67
2020/12/17 18:51:52;;;;;;;20.80;16.75;;;;;;;8.24;81.81;100984.63;9719833;28;20071;-67
2020/12/17 18:56:53;;;;;;;22.10;17.15;;;;;;;8.19;81.91;100975.22;9722446;28;20177;-68
2020/12/17 19:01:54;;;;;;;18.95;16.20;;;;;;;8.15;81.89;100974.53;9732969;28;20141;-68
2020/12/17 19:06:55;;;;;;;42.80;33.58;;;;;;;8.13;81.81;100976.44;9741745;28;20478;-67
2020/12/17 19:12:01;;;;;;;22.27;18.95;;;;;;;8.11;81.23;100976.53;9749908;28;20189;-67
2020/12/17 19:17:06;;;;;;;17.17;15.38;;;;;;;8.11;81.22;100968.56;9743337;28;20055;-67
2020/12/17 19:22:08;;;;;;;19.05;17.00;;;;;;;8.10;81.08;100973.97;9761799;28;20474;-68
2020/12/17 19:27:14;;;;;;;14.93;11.52;;;;;;;8.07;81.86;100982.94;9790846;28;20470;-68
2020/12/17 19:32:16;;;;;;;14.27;11.90;;;;;;;8.20;81.46;100998.16;9760842;28;20054;-67
2020/12/17 19:37:18;;;;;;;14.60;12.75;;;;;;;8.25;81.38;100996.06;9768125;28;20069;-67
2020/12/17 19:42:19;;;;;;;16.77;12.48;;;;;;;8.14;81.32;100989.59;9768378;28;20119;-68
2020/12/17 19:47:21;;;;;;;10.77;9.70;;;;;;;8.18;82.12;101000.03;9763729;28;20054;-67
2020/12/17 19:52:22;;;;;;;13.63;10.38;;;;;;;8.12;82.13;101007.41;9714472;28;20050;-68
2020/12/17 19:57:24;;;;;;;10.70;8.23;;;;;;;8.05;82.58;101007.88;9769835;28;20133;-67
2020/12/17 20:02:25;;;;;;;12.52;9.27;;;;;;;8.06;82.88;101002.47;9768537;28;20136;-67
2020/12/17 20:07:27;;;;;;;11.75;10.18;;;;;;;8.07;83.12;101013.91;9800689;28;20058;-67
2020/12/17 20:12:29;;;;;;;11.20;9.43;;;;;;;8.01;83.57;101008.97;9758328;28;20050;-67
2020/12/17 20:17:30;;;;;;;10.20;9.20;;;;;;;8.01;83.99;101020.41;9792731;28;20586;-67
2020/12/17 20:22:33;;;;;;;8.48;7.68;;;;;;;7.93;83.61;101004.13;9797530;28;20058;-67
2020/12/17 20:27:35;;;;;;;10.27;8.38;;;;;;;7.92;84.05;101010.34;9798153;28;20061;-67
2020/12/17 20:32:36;;;;;;;9.05;7.90;;;;;;;7.81;84.56;101003.03;9756534;28;20093;-66
2020/12/17 20:37:38;;;;;;;9.32;8.45;;;;;;;7.85;84.93;101022.25;9758340;28;20062;-67
2020/12/17 20:42:39;;;;;;;9.90;8.10;;;;;;;7.83;85.06;101017.03;9771262;28;20051;-67
2020/12/17 20:47:41;;;;;;;9.43;7.47;;;;;;;7.85;85.18;101011.63;9773617;28;20063;-67
2020/12/17 20:52:42;;;;;;;14.38;11.65;;;;;;;7.86;84.86;101029.25;9745928;28;20055;-67
2020/12/17 20:57:43;;;;;;;12.45;8.70;;;;;;;7.81;84.89;101023.34;9755193;28;25509;-66
2020/12/17 21:02:45;;;;;;;15.18;12.10;;;;;;;7.77;81.80;101018.22;9759578;28;20070;-66
2020/12/17 21:07:46;;;;;;;18.30;16.35;;;;;;;7.52;80.06;101007.28;9776311;28;20133;-67
2020/12/17 21:12:47;;;;;;;19.85;15.48;;;;;;;7.42;80.54;101025.50;9779522;28;20565;-67
2020/12/17 21:17:48;;;;;;;16.65;14.95;;;;;;;7.31;80.50;101018.16;9817537;28;20057;-68
2020/12/17 21:22:56;;;;;;;17.90;14.50;;;;;;;7.23;80.72;101023.00;9819720;28;20053;-68
2020/12/17 21:27:58;;;;;;;16.73;14.98;;;;;;;7.16;81.12;101037.50;9799340;28;20057;-68
2020/12/17 21:33:00;;;;;;;15.93;14.32;;;;;;;7.06;81.13;101021.28;9810977;28;20097;-68
2020/12/17 21:38:02;;;;;;;16.60;14.93;;;;;;;7.09;81.26;101031.69;9804851;28;20085;-68
2020/12/17 21:43:03;;;;;;;16.05;14.45;;;;;;;7.06;81.56;101027.41;9797787;28;20054;-68
2020/12/17 21:48:04;;;;;;;15.07;13.27;;;;;;;7.04;81.16;101023.13;9802022;28;20097;-69
2020/12/17 21:53:05;;;;;;;16.48;13.77;;;;;;;7.01;81.42;101024.16;9803974;28;20104;-68
2020/12/17 21:58:06;;;;;;;15.77;14.05;;;;;;;7.00;81.73;101021.59;9801275;28;20472;-67
2020/12/17 22:03:08;;;;;;;15.82;14.13;;;;;;;6.98;81.92;101026.97;9800876;28;21080;-67
2020/12/17 22:08:10;;;;;;;13.77;12.35;;;;;;;7.00;82.76;101027.75;9808413;28;20143;-68
2020/12/17 22:13:11;;;;;;;12.52;11.30;;;;;;;6.98;82.45;101026.97;9772223;28;24440;-67
2020/12/17 22:18:12;;;;;;;12.27;11.05;;;;;;;6.98;81.90;101034.91;9754184;28;20086;-67
2020/12/17 22:23:14;;;;;;;17.55;14.07;;;;;;;6.94;82.27;101022.78;9755817;28;20078;-67
2020/12/17 22:28:15;;;;;;;15.00;13.38;;;;;;;6.84;82.74;101010.97;9765543;28;20077;-67
2020/12/17 22:33:16;;;;;;;14.55;13.15;;;;;;;6.92;82.40;101029.94;9773974;28;20059;-67
2020/12/17 22:38:18;;;;;;;14.27;12.73;;;;;;;6.91;82.87;101030.88;9827019;28;21562;-68
2020/12/17 22:43:19;;;;;;;14.52;13.00;;;;;;;6.78;82.16;101016.56;9762658;28;20063;-68
2020/12/17 22:48:20;;;;;;;12.70;11.40;;;;;;;6.86;82.59;101022.31;9783674;28;24422;-67
2020/12/17 22:53:22;;;;;;;13.05;11.18;;;;;;;6.83;82.33;101030.41;9827293;28;20102;-68
2020/12/17 22:58:23;;;;;;;12.88;11.63;;;;;;;6.82;82.53;101036.66;9831719;28;20481;-67
2020/12/17 23:03:24;;;;;;;14.15;11.35;;;;;;;6.81;82.50;101033.13;9778898;28;20210;-68
2020/12/17 23:08:26;;;;;;;13.63;11.57;;;;;;;6.76;82.61;101019.31;9778103;28;20161;-67
2020/12/17 23:13:27;;;;;;;11.27;10.07;;;;;;;6.67;82.73;101010.06;9760651;28;21374;-67